Lake Hughes, California
Current Conditions -  °F | °C
As of 7:56 PM on Thursday 20 Nov 2014 (Local Time) from KWJF Reporting Station
Overcast Overcast  
Wind Chill: 55°   Ceiling: 3800
Heat Index: 55°   Visibility: 10mi
Dew Point: 43°   Wind: 20mph
Humidity: 64%   Direction: 250°WSW
Pressure: 30"   Gusts: NA
Location:  34.68°N, 118.45°W
Report Text: KWJF 210356Z AUTO 25017KT 10SM OVC038 13/06 A3000 RMK AO2 PK WND 25029/0337 SLP160 T01280061 TSNO
Loading
Personal Weather Stations






























Interactive Weather Map New forecast layout! Learn more

10-Day Weather Forecast

Advertisements
Track Severe Weather on mobile